sensor_id;sensor_type;location;lat;lon;timestamp;pressure;altitude;pressure_sealevel;temperature;humidity
29121;BME280;16191;49.548;8.658;2023-05-16T00:00:56;100138.88;;;14.23;100.00
29121;BME280;16191;49.548;8.658;2023-05-16T00:03:23;100143.13;;;14.25;100.00
29121;BME280;16191;49.548;8.658;2023-05-16T00:05:50;100145.06;;;14.22;100.00
29121;BME280;16191;49.548;8.658;2023-05-16T00:08:17;100148.03;;;14.16;100.00
29121;BME280;16191;49.548;8.658;2023-05-16T00:10:44;100143.53;;;14.18;100.00
29121;BME280;16191;49.548;8.658;2023-05-16T00:13:10;100146.25;;;14.16;100.00
29121;BME280;16191;49.548;8.658;2023-05-16T00:15:37;100141.25;;;14.12;100.00
29121;BME280;16191;49.548;8.658;2023-05-16T00:18:04;100145.09;;;14.06;100.00
29121;BME280;16191;49.548;8.658;2023-05-16T00:20:30;100145.75;;;14.10;100.00
29121;BME280;16191;49.548;8.658;2023-05-16T00:22:57;100138.47;;;14.15;100.00
29121;BME280;16191;49.548;8.658;2023-05-16T00:25:26;100138.72;;;14.10;100.00
29121;BME280;16191;49.548;8.658;2023-05-16T00:27:54;100136.09;;;14.10;100.00
29121;BME280;16191;49.548;8.658;2023-05-16T00:30:20;100143.41;;;14.05;100.00
29121;BME280;16191;49.548;8.658;2023-05-16T00:32:50;100135.78;;;14.00;100.00
29121;BME280;16191;49.548;8.658;2023-05-16T00:35:16;100135.88;;;13.99;100.00
29121;BME280;16191;49.548;8.658;2023-05-16T00:37:43;100135.19;;;13.95;100.00
29121;BME280;16191;49.548;8.658;2023-05-16T00:40:10;100135.19;;;13.95;100.00
29121;BME280;16191;49.548;8.658;2023-05-16T00:42:37;100141.31;;;13.80;100.00
29121;BME280;16191;49.548;8.658;2023-05-16T00:45:05;100136.91;;;13.81;100.00
29121;BME280;16191;49.548;8.658;2023-05-16T00:47:32;100132.50;;;13.81;100.00
29121;BME280;16191;49.548;8.658;2023-05-16T00:49:59;100137.84;;;13.80;100.00
29121;BME280;16191;49.548;8.658;2023-05-16T00:52:26;100128.47;;;13.60;100.00
29121;BME280;16191;49.548;8.658;2023-05-16T00:54:53;100136.66;;;13.69;100.00
29121;BME280;16191;49.548;8.658;2023-05-16T00:57:19;100130.91;;;13.63;100.00
29121;BME280;16191;49.548;8.658;2023-05-16T00:59:46;100129.47;;;13.57;100.00
29121;BME280;16191;49.548;8.658;2023-05-16T01:02:13;100133.78;;;13.58;100.00
29121;BME280;16191;49.548;8.658;2023-05-16T01:04:40;100134.50;;;13.29;100.00
29121;BME280;16191;49.548;8.658;2023-05-16T01:07:08;100131.31;;;13.40;100.00
29121;BME280;16191;49.548;8.658;2023-05-16T01:09:34;100132.41;;;13.51;100.00
29121;BME280;16191;49.548;8.658;2023-05-16T01:12:23;100133.09;;;13.55;100.00
29121;BME280;16191;49.548;8.658;2023-05-16T01:15:23;100137.50;;;13.54;100.00
29121;BME280;16191;49.548;8.658;2023-05-16T01:20:45;100143.91;;;13.33;100.00
29121;BME280;16191;49.548;8.658;2023-05-16T01:23:58;100145.69;;;13.32;100.00
29121;BME280;16191;49.548;8.658;2023-05-16T01:26:48;100142.88;;;13.20;100.00
29121;BME280;16191;49.548;8.658;2023-05-16T01:29:35;100147.53;;;13.30;100.00
29121;BME280;16191;49.548;8.658;2023-05-16T01:32:22;100145.69;;;13.32;100.00
29121;BME280;16191;49.548;8.658;2023-05-16T01:35:12;100145.75;;;13.31;100.00
29121;BME280;16191;49.548;8.658;2023-05-16T01:38:01;100144.81;;;13.32;100.00
29121;BME280;16191;49.548;8.658;2023-05-16T01:40:58;100138.13;;;13.26;100.00
29121;BME280;16191;49.548;8.658;2023-05-16T01:43:33;100143.13;;;13.31;100.00
29121;BME280;16191;49.548;8.658;2023-05-16T01:46:09;100141.75;;;13.24;100.00
29121;BME280;16191;49.548;8.658;2023-05-16T01:48:43;100146.22;;;13.22;100.00
29121;BME280;16191;49.548;8.658;2023-05-16T01:51:16;100147.28;;;13.19;100.00
29121;BME280;16191;49.548;8.658;2023-05-16T01:53:43;100148.03;;;13.04;100.00
29121;BME280;16191;49.548;8.658;2023-05-16T01:56:14;100150.56;;;13.05;100.00
29121;BME280;16191;49.548;8.658;2023-05-16T01:58:41;100153.63;;;13.14;100.00
29121;BME280;16191;49.548;8.658;2023-05-16T02:01:11;100156.22;;;13.15;100.00
29121;BME280;16191;49.548;8.658;2023-05-16T02:03:39;100151.19;;;13.11;100.00
29121;BME280;16191;49.548;8.658;2023-05-16T02:06:06;100152.16;;;12.92;100.00
29121;BME280;16191;49.548;8.658;2023-05-16T02:08:32;100156.47;;;12.93;100.00
29121;BME280;16191;49.548;8.658;2023-05-16T02:10:59;100153.09;;;13.07;100.00
29121;BME280;16191;49.548;8.658;2023-05-16T02:13:25;100155.81;;;13.05;100.00
29121;BME280;16191;49.548;8.658;2023-05-16T02:15:52;100160.97;;;13.07;100.00
29121;BME280;16191;49.548;8.658;2023-05-16T02:18:19;100157.06;;;12.98;100.00
29121;BME280;16191;49.548;8.658;2023-05-16T02:20:45;100155.13;;;13.02;100.00
29121;BME280;16191;49.548;8.658;2023-05-16T02:23:14;100161.81;;;13.08;100.00
29121;BME280;16191;49.548;8.658;2023-05-16T02:25:41;100156.03;;;13.01;100.00
29121;BME280;16191;49.548;8.658;2023-05-16T02:28:08;100156.22;;;12.98;100.00
29121;BME280;16191;49.548;8.658;2023-05-16T02:30:35;100155.00;;;12.88;100.00
29121;BME280;16191;49.548;8.658;2023-05-16T02:33:01;100158.16;;;12.94;100.00
29121;BME280;16191;49.548;8.658;2023-05-16T02:35:28;100163.25;;;12.97;100.00
29121;BME280;16191;49.548;8.658;2023-05-16T02:37:55;100150.72;;;13.02;100.00
29121;BME280;16191;49.548;8.658;2023-05-16T02:40:23;100149.22;;;12.98;100.00
29121;BME280;16191;49.548;8.658;2023-05-16T02:42:50;100157.75;;;12.85;100.00
29121;BME280;16191;49.548;8.658;2023-05-16T02:45:16;100162.56;;;12.77;100.00
29121;BME280;16191;49.548;8.658;2023-05-16T02:47:43;100164.16;;;12.79;100.00
29121;BME280;16191;49.548;8.658;2023-05-16T02:50:09;100158.69;;;12.84;100.00
29121;BME280;16191;49.548;8.658;2023-05-16T02:52:36;100161.53;;;12.79;100.00
29121;BME280;16191;49.548;8.658;2023-05-16T02:55:03;100165.25;;;12.75;100.00
29121;BME280;16191;49.548;8.658;2023-05-16T02:57:47;100163.56;;;12.74;100.00
29121;BME280;16191;49.548;8.658;2023-05-16T03:00:14;100164.56;;;12.72;100.00
29121;BME280;16191;49.548;8.658;2023-05-16T03:02:44;100162.25;;;12.65;100.00
29121;BME280;16191;49.548;8.658;2023-05-16T03:05:11;100161.63;;;12.60;100.00
29121;BME280;16191;49.548;8.658;2023-05-16T03:07:38;100168.50;;;12.46;100.00
29121;BME280;16191;49.548;8.658;2023-05-16T03:10:05;100162.19;;;12.50;100.00
29121;BME280;16191;49.548;8.658;2023-05-16T03:12:32;100160.72;;;12.44;100.00
29121;BME280;16191;49.548;8.658;2023-05-16T03:14:59;100163.25;;;12.46;100.00
29121;BME280;16191;49.548;8.658;2023-05-16T03:17:25;100170.56;;;12.39;100.00
29121;BME280;16191;49.548;8.658;2023-05-16T03:19:52;100169.63;;;12.40;100.00
29121;BME280;16191;49.548;8.658;2023-05-16T03:22:19;100182.94;;;12.35;100.00
29121;BME280;16191;49.548;8.658;2023-05-16T03:24:45;100174.34;;;12.33;100.00
29121;BME280;16191;49.548;8.658;2023-05-16T03:27:12;100180.50;;;12.32;100.00
29121;BME280;16191;49.548;8.658;2023-05-16T03:29:39;100177.97;;;12.31;100.00
29121;BME280;16191;49.548;8.658;2023-05-16T03:32:05;100186.88;;;12.27;100.00
29121;BME280;16191;49.548;8.658;2023-05-16T03:34:33;100192.38;;;12.21;100.00
29121;BME280;16191;49.548;8.658;2023-05-16T03:36:59;100190.53;;;12.06;100.00
29121;BME280;16191;49.548;8.658;2023-05-16T03:39:26;100192.16;;;12.08;100.00
29121;BME280;16191;49.548;8.658;2023-05-16T03:41:53;100190.72;;;12.01;100.00
29121;BME280;16191;49.548;8.658;2023-05-16T03:44:22;100198.28;;;12.07;100.00
29121;BME280;16191;49.548;8.658;2023-05-16T03:46:49;100203.47;;;11.90;100.00
29121;BME280;16191;49.548;8.658;2023-05-16T03:49:16;100196.47;;;11.90;100.00
29121;BME280;16191;49.548;8.658;2023-05-16T03:51:43;100198.84;;;11.95;100.00
29121;BME280;16191;49.548;8.658;2023-05-16T03:54:10;100195.25;;;11.97;100.00
29121;BME280;16191;49.548;8.658;2023-05-16T03:56:37;100199.00;;;11.92;100.00
29121;BME280;16191;49.548;8.658;2023-05-16T03:59:03;100208.72;;;11.90;100.00
29121;BME280;16191;49.548;8.658;2023-05-16T04:01:30;100208.06;;;11.85;100.00
29121;BME280;16191;49.548;8.658;2023-05-16T04:03:56;100202.56;;;11.52;100.00
29121;BME280;16191;49.548;8.658;2023-05-16T04:06:23;100222.31;;;11.59;100.00
29121;BME280;16191;49.548;8.658;2023-05-16T04:08:50;100226.88;;;11.54;100.00
29121;BME280;16191;49.548;8.658;2023-05-16T04:11:16;100226.41;;;11.64;100.00
29121;BME280;16191;49.548;8.658;2023-05-16T04:13:43;100225.56;;;11.64;100.00
29121;BME280;16191;49.548;8.658;2023-05-16T04:16:09;100227.97;;;11.68;100.00
29121;BME280;16191;49.548;8.658;2023-05-16T04:18:36;100233.81;;;11.74;100.00
29121;BME280;16191;49.548;8.658;2023-05-16T04:21:03;100233.19;;;11.68;100.00
29121;BME280;16191;49.548;8.658;2023-05-16T04:23:29;100227.19;;;11.66;100.00
29121;BME280;16191;49.548;8.658;2023-05-16T04:25:56;100230.00;;;11.62;100.00
29121;BME280;16191;49.548;8.658;2023-05-16T04:28:22;100227.25;;;11.65;100.00
29121;BME280;16191;49.548;8.658;2023-05-16T04:30:49;100233.88;;;11.72;100.00
29121;BME280;16191;49.548;8.658;2023-05-16T04:33:17;100227.53;;;11.59;100.00
29121;BME280;16191;49.548;8.658;2023-05-16T04:35:44;100236.66;;;11.69;100.00
29121;BME280;16191;49.548;8.658;2023-05-16T04:38:10;100236.13;;;11.81;100.00
29121;BME280;16191;49.548;8.658;2023-05-16T04:40:37;100230.97;;;11.80;100.00
29121;BME280;16191;49.548;8.658;2023-05-16T04:43:04;100240.44;;;11.82;100.00
29121;BME280;16191;49.548;8.658;2023-05-16T04:45:30;100240.72;;;11.75;100.00
29121;BME280;16191;49.548;8.658;2023-05-16T04:47:57;100248.34;;;11.81;100.00
29121;BME280;16191;49.548;8.658;2023-05-16T04:50:23;100255.84;;;11.88;100.00
29121;BME280;16191;49.548;8.658;2023-05-16T04:52:50;100252.38;;;11.88;100.00
29121;BME280;16191;49.548;8.658;2023-05-16T04:55:17;100255.91;;;11.87;100.00
29121;BME280;16191;49.548;8.658;2023-05-16T04:57:43;100252.38;;;11.88;100.00
29121;BME280;16191;49.548;8.658;2023-05-16T05:00:10;100259.44;;;11.86;100.00
29121;BME280;16191;49.548;8.658;2023-05-16T05:02:37;100254.63;;;11.95;100.00
29121;BME280;16191;49.548;8.658;2023-05-16T05:05:05;100258.88;;;11.98;100.00
29121;BME280;16191;49.548;8.658;2023-05-16T05:07:32;100264.38;;;12.11;100.00
29121;BME280;16191;49.548;8.658;2023-05-16T05:09:58;100261.97;;;12.06;100.00
29121;BME280;16191;49.548;8.658;2023-05-16T05:12:25;100263.81;;;12.04;100.00
29121;BME280;16191;49.548;8.658;2023-05-16T05:14:53;100265.94;;;11.96;100.00
29121;BME280;16191;49.548;8.658;2023-05-16T05:17:20;100271.31;;;12.12;100.00
29121;BME280;16191;49.548;8.658;2023-05-16T05:19:47;100270.59;;;12.08;100.00
29121;BME280;16191;49.548;8.658;2023-05-16T05:22:14;100275.00;;;12.08;100.00
29121;BME280;16191;49.548;8.658;2023-05-16T05:24:40;100268.53;;;12.15;100.00
29121;BME280;16191;49.548;8.658;2023-05-16T05:27:07;100272.44;;;12.25;100.00
29121;BME280;16191;49.548;8.658;2023-05-16T05:29:34;100265.13;;;12.13;100.00
29121;BME280;16191;49.548;8.658;2023-05-16T05:32:00;100277.16;;;12.17;100.00
29121;BME280;16191;49.548;8.658;2023-05-16T05:34:27;100275.97;;;12.24;100.00
29121;BME280;16191;49.548;8.658;2023-05-16T05:36:53;100275.31;;;12.19;100.00
29121;BME280;16191;49.548;8.658;2023-05-16T05:39:20;100273.84;;;12.32;100.00
29121;BME280;16191;49.548;8.658;2023-05-16T05:41:47;100271.28;;;12.30;100.00
29121;BME280;16191;49.548;8.658;2023-05-16T05:44:13;100280.47;;;12.39;100.00
29121;BME280;16191;49.548;8.658;2023-05-16T05:46:40;100277.38;;;12.31;100.00
29121;BME280;16191;49.548;8.658;2023-05-16T05:49:06;100288.13;;;12.25;100.00
29121;BME280;16191;49.548;8.658;2023-05-16T05:51:33;100283.00;;;12.41;100.00
29121;BME280;16191;49.548;8.658;2023-05-16T05:54:01;100288.16;;;12.42;100.00
29121;BME280;16191;49.548;8.658;2023-05-16T05:56:27;100285.75;;;12.38;100.00
29121;BME280;16191;49.548;8.658;2023-05-16T05:58:54;100288.84;;;12.28;100.00
29121;BME280;16191;49.548;8.658;2023-05-16T06:01:20;100286.63;;;12.38;100.00
29121;BME280;16191;49.548;8.658;2023-05-16T06:03:47;100298.31;;;12.31;100.00
29121;BME280;16191;49.548;8.658;2023-05-16T06:06:14;100295.56;;;12.34;100.00
29121;BME280;16191;49.548;8.658;2023-05-16T06:08:40;100289.09;;;12.41;100.00
29121;BME280;16191;49.548;8.658;2023-05-16T06:11:07;100293.44;;;12.59;100.00
29121;BME280;16191;49.548;8.658;2023-05-16T06:13:34;100294.66;;;12.52;100.00
29121;BME280;16191;49.548;8.658;2023-05-16T06:16:01;100294.34;;;12.58;100.00
29121;BME280;16191;49.548;8.658;2023-05-16T06:18:28;100295.41;;;12.73;100.00
29121;BME280;16191;49.548;8.658;2023-05-16T06:20:55;100305.16;;;12.52;100.00
29121;BME280;16191;49.548;8.658;2023-05-16T06:23:21;100298.13;;;12.53;100.00
29121;BME280;16191;49.548;8.658;2023-05-16T06:25:48;100300.59;;;12.56;100.00
29121;BME280;16191;49.548;8.658;2023-05-16T06:28:14;100299.78;;;12.73;100.00
29121;BME280;16191;49.548;8.658;2023-05-16T06:30:41;100309.50;;;12.70;100.00
29121;BME280;16191;49.548;8.658;2023-05-16T06:33:08;100299.66;;;12.76;100.00
29121;BME280;16191;49.548;8.658;2023-05-16T06:35:34;100306.59;;;12.94;100.00
29121;BME280;16191;49.548;8.658;2023-05-16T06:38:01;100307.97;;;13.01;100.00
29121;BME280;16191;49.548;8.658;2023-05-16T06:40:28;100307.44;;;12.94;100.00
29121;BME280;16191;49.548;8.658;2023-05-16T06:42:54;100309.00;;;12.98;100.00
29121;BME280;16191;49.548;8.658;2023-05-16T06:45:23;100304.41;;;13.02;100.00
29121;BME280;16191;49.548;8.658;2023-05-16T06:47:50;100311.44;;;13.01;100.00
29121;BME280;16191;49.548;8.658;2023-05-16T06:50:19;100312.28;;;13.02;100.00
29121;BME280;16191;49.548;8.658;2023-05-16T06:52:46;100312.22;;;13.21;100.00
29121;BME280;16191;49.548;8.658;2023-05-16T06:55:12;100308.44;;;13.09;100.00
29121;BME280;16191;49.548;8.658;2023-05-16T06:57:39;100315.31;;;13.12;100.00
29121;BME280;16191;49.548;8.658;2023-05-16T07:00:06;100313.38;;;12.98;100.00
29121;BME280;16191;49.548;8.658;2023-05-16T07:02:33;100323.47;;;13.05;100.00
29121;BME280;16191;49.548;8.658;2023-05-16T07:05:00;100325.22;;;13.05;100.00
29121;BME280;16191;49.548;8.658;2023-05-16T07:07:27;100328.69;;;13.05;100.00
29121;BME280;16191;49.548;8.658;2023-05-16T07:09:53;100331.69;;;13.17;100.00
29121;BME280;16191;49.548;8.658;2023-05-16T07:12:20;100336.47;;;13.07;100.00
29121;BME280;16191;49.548;8.658;2023-05-16T07:14:47;100333.09;;;13.05;100.00
29121;BME280;16191;49.548;8.658;2023-05-16T07:17:13;100338.66;;;12.99;100.00
29121;BME280;16191;49.548;8.658;2023-05-16T07:19:40;100344.84;;;13.15;100.00
29121;BME280;16191;49.548;8.658;2023-05-16T07:22:07;100338.19;;;13.08;100.00
29121;BME280;16191;49.548;8.658;2023-05-16T07:24:34;100343.28;;;13.11;100.00
29121;BME280;16191;49.548;8.658;2023-05-16T07:27:02;100345.75;;;12.97;100.00
29121;BME280;16191;49.548;8.658;2023-05-16T07:29:29;100347.44;;;12.98;100.00
29121;BME280;16191;49.548;8.658;2023-05-16T07:31:56;100342.41;;;12.93;100.00
29121;BME280;16191;49.548;8.658;2023-05-16T07:34:22;100343.41;;;12.91;100.00
29121;BME280;16191;49.548;8.658;2023-05-16T07:36:49;100350.91;;;12.80;100.00
29121;BME280;16191;49.548;8.658;2023-05-16T07:39:16;100358.28;;;12.90;100.00
29121;BME280;16191;49.548;8.658;2023-05-16T07:41:42;100349.41;;;12.93;100.00
29121;BME280;16191;49.548;8.658;2023-05-16T07:44:09;100358.09;;;12.76;100.00
29121;BME280;16191;49.548;8.658;2023-05-16T07:46:36;100361.56;;;12.77;100.00
29121;BME280;16191;49.548;8.658;2023-05-16T07:49:03;100363.41;;;12.75;100.00
29121;BME280;16191;49.548;8.658;2023-05-16T07:51:30;100371.50;;;12.51;100.00
29121;BME280;16191;49.548;8.658;2023-05-16T07:53:57;100370.66;;;12.51;100.00
29121;BME280;16191;49.548;8.658;2023-05-16T07:56:23;100374.81;;;12.55;100.00
29121;BME280;16191;49.548;8.658;2023-05-16T07:58:50;100381.47;;;12.43;100.00
29121;BME280;16191;49.548;8.658;2023-05-16T08:01:16;100378.78;;;12.45;100.00
29121;BME280;16191;49.548;8.658;2023-05-16T08:03:43;100380.88;;;12.36;100.00
29121;BME280;16191;49.548;8.658;2023-05-16T08:06:10;100384.84;;;12.26;100.00
29121;BME280;16191;49.548;8.658;2023-05-16T08:08:36;100382.97;;;12.30;100.00
29121;BME280;16191;49.548;8.658;2023-05-16T08:11:03;100389.66;;;12.35;100.00
29121;BME280;16191;49.548;8.658;2023-05-16T08:13:31;100378.84;;;12.43;100.00
29121;BME280;16191;49.548;8.658;2023-05-16T08:15:57;100395.06;;;12.51;100.00
29121;BME280;16191;49.548;8.658;2023-05-16T08:18:24;100392.38;;;12.53;100.00
29121;BME280;16191;49.548;8.658;2023-05-16T08:20:51;100385.91;;;12.60;100.00
29121;BME280;16191;49.548;8.658;2023-05-16T08:23:17;100387.75;;;12.58;100.00
29121;BME280;16191;49.548;8.658;2023-05-16T08:25:44;100394.59;;;12.60;100.00
29121;BME280;16191;49.548;8.658;2023-05-16T08:28:11;100397.38;;;12.57;100.00
29121;BME280;16191;49.548;8.658;2023-05-16T08:30:37;100396.31;;;12.61;100.00
29121;BME280;16191;49.548;8.658;2023-05-16T08:33:07;100401.47;;;12.63;100.00
29121;BME280;16191;49.548;8.658;2023-05-16T08:35:35;100392.38;;;12.53;100.00
29121;BME280;16191;49.548;8.658;2023-05-16T08:38:02;100393.63;;;12.63;100.00
29121;BME280;16191;49.548;8.658;2023-05-16T08:40:28;100398.78;;;12.64;100.00
29121;BME280;16191;49.548;8.658;2023-05-16T08:42:56;100402.91;;;12.70;100.00
29121;BME280;16191;49.548;8.658;2023-05-16T08:45:22;100398.63;;;12.86;100.00
29121;BME280;16191;49.548;8.658;2023-05-16T08:47:49;100406.28;;;12.72;100.00
29121;BME280;16191;49.548;8.658;2023-05-16T08:50:20;100396.66;;;12.73;100.00
29121;BME280;16191;49.548;8.658;2023-05-16T08:52:52;100402.44;;;12.98;100.00
29121;BME280;16191;49.548;8.658;2023-05-16T08:55:20;100411.06;;;13.19;100.00
29121;BME280;16191;49.548;8.658;2023-05-16T08:57:50;100413.84;;;13.33;100.00
29121;BME280;16191;49.548;8.658;2023-05-16T09:00:18;100415.06;;;13.26;100.00
29121;BME280;16191;49.548;8.658;2023-05-16T09:02:45;100407.38;;;13.57;100.00
29121;BME280;16191;49.548;8.658;2023-05-16T09:05:14;100410.13;;;13.71;100.00
29121;BME280;16191;49.548;8.658;2023-05-16T09:07:42;100406.44;;;13.76;100.00
29121;BME280;16191;49.548;8.658;2023-05-16T09:10:09;100404.66;;;13.76;100.00
29121;BME280;16191;49.548;8.658;2023-05-16T09:12:37;100404.44;;;13.81;100.00
29121;BME280;16191;49.548;8.658;2023-05-16T09:15:05;100404.53;;;13.62;100.00
29121;BME280;16191;49.548;8.658;2023-05-16T09:17:42;100404.75;;;13.57;100.00
29121;BME280;16191;49.548;8.658;2023-05-16T09:20:16;100407.38;;;13.40;100.00
29121;BME280;16191;49.548;8.658;2023-05-16T09:22:57;100411.22;;;13.16;100.00
29121;BME280;16191;49.548;8.658;2023-05-16T09:25:28;100419.22;;;12.94;100.00
29121;BME280;16191;49.548;8.658;2023-05-16T09:27:59;100424.56;;;12.55;100.00
29121;BME280;16191;49.548;8.658;2023-05-16T09:30:32;100418.69;;;12.50;100.00
29121;BME280;16191;49.548;8.658;2023-05-16T09:33:00;100428.16;;;12.52;100.00
29121;BME280;16191;49.548;8.658;2023-05-16T09:35:27;100431.56;;;12.73;100.00
29121;BME280;16191;49.548;8.658;2023-05-16T09:38:14;100438.69;;;12.51;100.00
29121;BME280;16191;49.548;8.658;2023-05-16T09:40:43;100436.88;;;12.53;100.00
29121;BME280;16191;49.548;8.658;2023-05-16T09:43:14;100452.25;;;12.40;100.00
29121;BME280;16191;49.548;8.658;2023-05-16T09:45:46;100451.13;;;12.46;100.00
29121;BME280;16191;49.548;8.658;2023-05-16T09:48:14;100455.78;;;12.39;100.00
29121;BME280;16191;49.548;8.658;2023-05-16T09:50:51;100450.34;;;12.44;100.00
29121;BME280;16191;49.548;8.658;2023-05-16T09:53:31;100457.47;;;12.21;100.00
29121;BME280;16191;49.548;8.658;2023-05-16T09:56:02;100466.56;;;12.52;100.00
29121;BME280;16191;49.548;8.658;2023-05-16T09:58:31;100460.41;;;12.53;100.00
29121;BME280;16191;49.548;8.658;2023-05-16T10:00:58;100460.19;;;12.57;100.00
29121;BME280;16191;49.548;8.658;2023-05-16T10:03:26;100461.91;;;12.77;100.00
29121;BME280;16191;49.548;8.658;2023-05-16T10:05:54;100463.75;;;12.75;100.00
29121;BME280;16191;49.548;8.658;2023-05-16T10:08:22;100463.19;;;12.68;100.00
29121;BME280;16191;49.548;8.658;2023-05-16T10:10:53;100471.22;;;12.45;100.00
29121;BME280;16191;49.548;8.658;2023-05-16T10:13:23;100465.34;;;12.59;100.00
29121;BME280;16191;49.548;8.658;2023-05-16T10:15:54;100468.06;;;12.76;100.00
29121;BME280;16191;49.548;8.658;2023-05-16T10:18:23;100461.34;;;12.89;100.00
29121;BME280;16191;49.548;8.658;2023-05-16T10:20:54;100467.22;;;12.94;100.00
29121;BME280;16191;49.548;8.658;2023-05-16T10:23:24;100462.97;;;12.92;100.00
29121;BME280;16191;49.548;8.658;2023-05-16T10:25:52;100468.63;;;12.83;100.00
29121;BME280;16191;49.548;8.658;2023-05-16T10:28:20;100472.31;;;12.97;100.00
29121;BME280;16191;49.548;8.658;2023-05-16T10:30:47;100468.00;;;12.96;100.00
29121;BME280;16191;49.548;8.658;2023-05-16T10:33:17;100472.53;;;12.93;100.00
29121;BME280;16191;49.548;8.658;2023-05-16T10:35:45;100478.38;;;12.79;100.00
29121;BME280;16191;49.548;8.658;2023-05-16T10:38:17;100476.13;;;12.90;100.00
29121;BME280;16191;49.548;8.658;2023-05-16T10:40:46;100480.31;;;12.76;100.00
29121;BME280;16191;49.548;8.658;2023-05-16T10:43:22;100485.91;;;12.68;100.00
29121;BME280;16191;49.548;8.658;2023-05-16T10:45:57;100475.06;;;12.94;100.00
29121;BME280;16191;49.548;8.658;2023-05-16T10:48:31;100477.75;;;13.12;100.00
29121;BME280;16191;49.548;8.658;2023-05-16T10:50:58;100479.66;;;13.08;100.00
29121;BME280;16191;49.548;8.658;2023-05-16T10:53:31;100478.94;;;13.04;100.00
29121;BME280;16191;49.548;8.658;2023-05-16T11:01:32;100477.03;;;12.89;100.00
29121;BME280;16191;49.548;8.658;2023-05-16T11:04:07;100477.16;;;13.05;100.00
29121;BME280;16191;49.548;8.658;2023-05-16T11:11:45;100499.25;;;12.81;100.00
29121;BME280;16191;49.548;8.658;2023-05-16T11:14:22;100499.34;;;12.79;100.00
29121;BME280;16191;49.548;8.658;2023-05-16T11:19:47;100500.75;;;12.86;100.00
29121;BME280;16191;49.548;8.658;2023-05-16T11:22:21;100498.72;;;12.93;100.00
29121;BME280;16191;49.548;8.658;2023-05-16T11:24:59;100495.38;;;13.08;100.00
29121;BME280;16191;49.548;8.658;2023-05-16T11:27:34;100497.72;;;13.14;100.00
29121;BME280;16191;49.548;8.658;2023-05-16T11:32:35;100499.91;;;13.23;100.00
29121;BME280;16191;49.548;8.658;2023-05-16T11:35:03;100500.13;;;13.37;99.62
29121;BME280;16191;49.548;8.658;2023-05-16T11:37:30;100502.09;;;13.32;100.00
29121;BME280;16191;49.548;8.658;2023-05-16T11:40:01;100497.00;;;13.29;100.00
29121;BME280;16191;49.548;8.658;2023-05-16T11:42:30;100507.47;;;13.29;100.00
29121;BME280;16191;49.548;8.658;2023-05-16T11:45:07;100511.31;;;13.41;99.94
29121;BME280;16191;49.548;8.658;2023-05-16T11:47:38;100513.81;;;13.43;100.00
29121;BME280;16191;49.548;8.658;2023-05-16T11:50:06;100507.38;;;13.50;98.77
29121;BME280;16191;49.548;8.658;2023-05-16T11:52:35;100502.91;;;13.52;96.69
29121;BME280;16191;49.548;8.658;2023-05-16T11:55:06;100507.34;;;13.32;95.32
29121;BME280;16191;49.548;8.658;2023-05-16T11:57:39;100502.72;;;13.37;95.70
29121;BME280;16191;49.548;8.658;2023-05-16T12:00:18;100514.25;;;13.52;95.85
29121;BME280;16191;49.548;8.658;2023-05-16T12:02:46;100509.34;;;13.63;95.62
29121;BME280;16191;49.548;8.658;2023-05-16T12:05:14;100514.66;;;13.62;96.00
29121;BME280;16191;49.548;8.658;2023-05-16T12:07:45;100514.75;;;13.78;94.98
29121;BME280;16191;49.548;8.658;2023-05-16T12:10:13;100509.94;;;13.86;96.43
29121;BME280;16191;49.548;8.658;2023-05-16T12:12:43;100512.13;;;13.78;95.86
29121;BME280;16191;49.548;8.658;2023-05-16T12:15:11;100513.88;;;13.77;94.16
29121;BME280;16191;49.548;8.658;2023-05-16T12:17:39;100518.34;;;13.92;92.12
29121;BME280;16191;49.548;8.658;2023-05-16T12:20:07;100511.19;;;13.79;93.07
29121;BME280;16191;49.548;8.658;2023-05-16T12:22:41;100515.19;;;13.86;91.50
29121;BME280;16191;49.548;8.658;2023-05-16T12:25:28;100512.03;;;13.79;89.92
29121;BME280;16191;49.548;8.658;2023-05-16T12:27:58;100521.06;;;13.91;89.71
29121;BME280;16191;49.548;8.658;2023-05-16T12:30:26;100516.72;;;13.90;90.42
29121;BME280;16191;49.548;8.658;2023-05-16T12:33:01;100519.66;;;14.18;89.34
29121;BME280;16191;49.548;8.658;2023-05-16T12:35:33;100523.91;;;14.21;86.21
29121;BME280;16191;49.548;8.658;2023-05-16T12:38:03;100524.69;;;14.23;87.00
29121;BME280;16191;49.548;8.658;2023-05-16T12:40:31;100522.34;;;14.34;83.90
29121;BME280;16191;49.548;8.658;2023-05-16T12:42:58;100524.13;;;14.16;85.24
29121;BME280;16191;49.548;8.658;2023-05-16T12:45:28;100525.38;;;14.26;84.91
29121;BME280;16191;49.548;8.658;2023-05-16T12:47:54;100525.75;;;14.19;82.28
29121;BME280;16191;49.548;8.658;2023-05-16T12:50:21;100532.75;;;14.35;80.27
29121;BME280;16191;49.548;8.658;2023-05-16T12:52:49;100529.09;;;14.22;79.70
29121;BME280;16191;49.548;8.658;2023-05-16T12:55:17;100529.63;;;14.29;79.90
29121;BME280;16191;49.548;8.658;2023-05-16T12:57:45;100530.97;;;14.36;80.07
29121;BME280;16191;49.548;8.658;2023-05-16T13:00:15;100532.22;;;14.79;79.10
29121;BME280;16191;49.548;8.658;2023-05-16T13:02:41;100528.19;;;14.89;75.75
29121;BME280;16191;49.548;8.658;2023-05-16T13:05:08;100529.72;;;14.93;74.01
29121;BME280;16191;49.548;8.658;2023-05-16T13:07:38;100527.97;;;14.77;73.97